sensor_id;sensor_type;location;lat;lon;timestamp;temperature;humidity
7572;DHT22;3827;49.928;8.548;2022-12-29T00:02:37;9.80;99.90
7572;DHT22;3827;49.928;8.548;2022-12-29T00:07:32;9.80;99.90
7572;DHT22;3827;49.928;8.548;2022-12-29T00:12:26;10.00;99.90
7572;DHT22;3827;49.928;8.548;2022-12-29T00:25:58;10.10;99.90
7572;DHT22;3827;49.928;8.548;2022-12-29T00:28:50;10.30;99.90
7572;DHT22;3827;49.928;8.548;2022-12-29T00:31:36;10.40;99.90
7572;DHT22;3827;49.928;8.548;2022-12-29T00:39:32;10.40;99.90
7572;DHT22;3827;49.928;8.548;2022-12-29T00:45:01;10.50;99.90
7572;DHT22;3827;49.928;8.548;2022-12-29T00:47:29;10.80;99.90
7572;DHT22;3827;49.928;8.548;2022-12-29T00:54:49;10.70;99.90
7572;DHT22;3827;49.928;8.548;2022-12-29T00:59:43;11.20;99.90
7572;DHT22;3827;49.928;8.548;2022-12-29T01:02:11;10.50;99.90
7572;DHT22;3827;49.928;8.548;2022-12-29T01:04:39;10.50;99.90
7572;DHT22;3827;49.928;8.548;2022-12-29T01:07:05;10.80;99.90
7572;DHT22;3827;49.928;8.548;2022-12-29T01:12:17;10.40;99.90
7572;DHT22;3827;49.928;8.548;2022-12-29T01:15:06;10.70;99.90
7572;DHT22;3827;49.928;8.548;2022-12-29T01:20:01;10.80;99.90
7572;DHT22;3827;49.928;8.548;2022-12-29T01:29:50;10.90;99.90
7572;DHT22;3827;49.928;8.548;2022-12-29T01:34:44;10.60;99.90
7572;DHT22;3827;49.928;8.548;2022-12-29T01:42:13;10.80;99.90
7572;DHT22;3827;49.928;8.548;2022-12-29T01:47:22;10.50;99.90
7572;DHT22;3827;49.928;8.548;2022-12-29T01:49:50;10.40;99.90
7572;DHT22;3827;49.928;8.548;2022-12-29T01:54:51;10.40;99.90
7572;DHT22;3827;49.928;8.548;2022-12-29T01:57:21;10.80;99.90
7572;DHT22;3827;49.928;8.548;2022-12-29T02:02:19;10.60;99.90
7572;DHT22;3827;49.928;8.548;2022-12-29T02:07:18;11.00;99.90
7572;DHT22;3827;49.928;8.548;2022-12-29T02:09:49;10.80;99.90
7572;DHT22;3827;49.928;8.548;2022-12-29T02:22:27;11.00;99.90
7572;DHT22;3827;49.928;8.548;2022-12-29T02:25:26;11.00;99.90
7572;DHT22;3827;49.928;8.548;2022-12-29T02:38:25;10.90;99.90
7572;DHT22;3827;49.928;8.548;2022-12-29T02:41:00;10.80;99.90
7572;DHT22;3827;49.928;8.548;2022-12-29T02:46:04;10.90;99.90
7572;DHT22;3827;49.928;8.548;2022-12-29T02:48:40;10.70;99.90
7572;DHT22;3827;49.928;8.548;2022-12-29T02:53:38;10.50;99.90
7572;DHT22;3827;49.928;8.548;2022-12-29T02:56:22;11.10;99.90
7572;DHT22;3827;49.928;8.548;2022-12-29T02:58:49;11.10;99.90
7572;DHT22;3827;49.928;8.548;2022-12-29T03:09:02;10.90;99.90
7572;DHT22;3827;49.928;8.548;2022-12-29T03:14:26;11.40;99.90
7572;DHT22;3827;49.928;8.548;2022-12-29T03:17:19;11.00;99.90
7572;DHT22;3827;49.928;8.548;2022-12-29T03:29:58;11.10;99.90
7572;DHT22;3827;49.928;8.548;2022-12-29T03:32:31;10.80;99.90
7572;DHT22;3827;49.928;8.548;2022-12-29T03:42:27;11.10;99.90
7572;DHT22;3827;49.928;8.548;2022-12-29T03:44:56;10.80;99.90
7572;DHT22;3827;49.928;8.548;2022-12-29T03:47:24;11.00;99.90
7572;DHT22;3827;49.928;8.548;2022-12-29T03:49:52;11.60;99.90
7572;DHT22;3827;49.928;8.548;2022-12-29T03:52:20;10.90;99.90
7572;DHT22;3827;49.928;8.548;2022-12-29T03:54:46;11.00;99.90
7572;DHT22;3827;49.928;8.548;2022-12-29T03:59:40;11.20;99.90
7572;DHT22;3827;49.928;8.548;2022-12-29T04:04:34;11.20;99.90
7572;DHT22;3827;49.928;8.548;2022-12-29T04:11:58;11.30;99.90
7572;DHT22;3827;49.928;8.548;2022-12-29T04:29:09;11.60;99.90
7572;DHT22;3827;49.928;8.548;2022-12-29T04:34:03;11.70;99.90
7572;DHT22;3827;49.928;8.548;2022-12-29T04:36:30;11.60;99.90
7572;DHT22;3827;49.928;8.548;2022-12-29T04:58:35;11.70;99.90
7572;DHT22;3827;49.928;8.548;2022-12-29T05:01:04;11.50;99.90
7572;DHT22;3827;49.928;8.548;2022-12-29T05:03:30;11.70;99.90
7572;DHT22;3827;49.928;8.548;2022-12-29T05:08:25;11.70;99.90
7572;DHT22;3827;49.928;8.548;2022-12-29T05:13:18;11.80;99.90
7572;DHT22;3827;49.928;8.548;2022-12-29T05:23:10;12.00;99.90
7572;DHT22;3827;49.928;8.548;2022-12-29T05:25:37;11.90;99.90
7572;DHT22;3827;49.928;8.548;2022-12-29T05:30:31;11.80;99.90
7572;DHT22;3827;49.928;8.548;2022-12-29T05:42:47;11.90;99.90
7572;DHT22;3827;49.928;8.548;2022-12-29T05:47:41;11.70;99.90
7572;DHT22;3827;49.928;8.548;2022-12-29T05:55:04;11.90;99.90
7572;DHT22;3827;49.928;8.548;2022-12-29T05:57:31;11.70;99.90
7572;DHT22;3827;49.928;8.548;2022-12-29T05:59:58;11.90;99.90
7572;DHT22;3827;49.928;8.548;2022-12-29T06:12:14;11.90;99.90
7572;DHT22;3827;49.928;8.548;2022-12-29T06:17:08;12.00;99.90
7572;DHT22;3827;49.928;8.548;2022-12-29T06:22:02;12.20;99.90
7572;DHT22;3827;49.928;8.548;2022-12-29T06:24:30;12.00;99.90
7572;DHT22;3827;49.928;8.548;2022-12-29T06:26:58;12.40;99.90
7572;DHT22;3827;49.928;8.548;2022-12-29T06:31:53;12.00;99.90
7572;DHT22;3827;49.928;8.548;2022-12-29T06:34:23;12.30;99.90
7572;DHT22;3827;49.928;8.548;2022-12-29T06:39:17;12.10;99.90
7572;DHT22;3827;49.928;8.548;2022-12-29T06:46:39;12.10;99.90
7572;DHT22;3827;49.928;8.548;2022-12-29T06:56:27;11.90;99.90
7572;DHT22;3827;49.928;8.548;2022-12-29T07:13:38;11.80;99.90
7572;DHT22;3827;49.928;8.548;2022-12-29T07:16:06;12.00;99.90
7572;DHT22;3827;49.928;8.548;2022-12-29T07:26:01;12.00;99.90
7572;DHT22;3827;49.928;8.548;2022-12-29T07:28:28;11.70;99.90
7572;DHT22;3827;49.928;8.548;2022-12-29T07:30:55;11.90;99.90
7572;DHT22;3827;49.928;8.548;2022-12-29T07:35:50;12.10;99.90
7572;DHT22;3827;49.928;8.548;2022-12-29T07:38:17;12.20;99.90
7572;DHT22;3827;49.928;8.548;2022-12-29T07:43:11;12.20;99.90
7572;DHT22;3827;49.928;8.548;2022-12-29T07:50:33;12.20;99.90
7572;DHT22;3827;49.928;8.548;2022-12-29T07:55:29;11.90;99.90
7572;DHT22;3827;49.928;8.548;2022-12-29T08:00:23;12.10;99.90
7572;DHT22;3827;49.928;8.548;2022-12-29T08:05:18;12.30;99.90
7572;DHT22;3827;49.928;8.548;2022-12-29T08:07:45;12.20;99.90
7572;DHT22;3827;49.928;8.548;2022-12-29T08:12:42;12.30;99.90
7572;DHT22;3827;49.928;8.548;2022-12-29T08:17:37;12.10;99.90
7572;DHT22;3827;49.928;8.548;2022-12-29T08:22:32;12.30;99.90
7572;DHT22;3827;49.928;8.548;2022-12-29T08:29:54;12.30;99.90
7572;DHT22;3827;49.928;8.548;2022-12-29T08:34:48;12.50;99.90
7572;DHT22;3827;49.928;8.548;2022-12-29T08:39:43;12.30;99.90
7572;DHT22;3827;49.928;8.548;2022-12-29T08:56:54;12.40;99.90
7572;DHT22;3827;49.928;8.548;2022-12-29T08:59:21;12.30;99.90
7572;DHT22;3827;49.928;8.548;2022-12-29T09:01:49;12.50;99.90
7572;DHT22;3827;49.928;8.548;2022-12-29T09:09:11;12.40;99.90
7572;DHT22;3827;49.928;8.548;2022-12-29T09:14:05;12.60;99.90
7572;DHT22;3827;49.928;8.548;2022-12-29T09:16:33;12.40;99.90
7572;DHT22;3827;49.928;8.548;2022-12-29T09:23:56;12.30;99.90
7572;DHT22;3827;49.928;8.548;2022-12-29T09:28:50;12.50;99.90
7572;DHT22;3827;49.928;8.548;2022-12-29T09:31:16;12.80;99.90
7572;DHT22;3827;49.928;8.548;2022-12-29T09:36:12;12.50;99.90
7572;DHT22;3827;49.928;8.548;2022-12-29T09:41:12;12.70;99.90
7572;DHT22;3827;49.928;8.548;2022-12-29T09:43:55;12.80;99.90
7572;DHT22;3827;49.928;8.548;2022-12-29T09:46:28;12.90;99.90
7572;DHT22;3827;49.928;8.548;2022-12-29T09:56:49;12.30;99.90
7572;DHT22;3827;49.928;8.548;2022-12-29T09:59:21;12.10;99.90
7572;DHT22;3827;49.928;8.548;2022-12-29T10:04:19;11.80;99.90
7572;DHT22;3827;49.928;8.548;2022-12-29T10:09:22;11.60;99.90
7572;DHT22;3827;49.928;8.548;2022-12-29T10:14:48;10.10;99.90
7572;DHT22;3827;49.928;8.548;2022-12-29T10:17:27;9.60;99.90
7572;DHT22;3827;49.928;8.548;2022-12-29T10:22:45;9.60;99.90
7572;DHT22;3827;49.928;8.548;2022-12-29T10:27:47;9.50;99.90
7572;DHT22;3827;49.928;8.548;2022-12-29T10:32:46;9.70;99.90
7572;DHT22;3827;49.928;8.548;2022-12-29T10:35:16;10.00;99.90
7572;DHT22;3827;49.928;8.548;2022-12-29T10:37:52;10.00;99.90
7572;DHT22;3827;49.928;8.548;2022-12-29T10:45:22;10.10;99.90
7572;DHT22;3827;49.928;8.548;2022-12-29T11:00:23;9.90;99.90
7572;DHT22;3827;49.928;8.548;2022-12-29T11:10:57;10.90;99.90
7572;DHT22;3827;49.928;8.548;2022-12-29T11:15:53;11.50;99.90
7572;DHT22;3827;49.928;8.548;2022-12-29T11:26:14;11.30;99.90
7572;DHT22;3827;49.928;8.548;2022-12-29T11:28:44;11.30;99.90
7572;DHT22;3827;49.928;8.548;2022-12-29T11:31:16;11.30;99.90
7572;DHT22;3827;49.928;8.548;2022-12-29T11:36:13;11.50;99.90
7572;DHT22;3827;49.928;8.548;2022-12-29T11:38:46;11.60;99.90
7572;DHT22;3827;49.928;8.548;2022-12-29T11:46:16;11.80;99.90
7572;DHT22;3827;49.928;8.548;2022-12-29T11:48:46;11.90;99.90
7572;DHT22;3827;49.928;8.548;2022-12-29T11:56:22;11.90;99.90
7572;DHT22;3827;49.928;8.548;2022-12-29T11:58:57;11.90;99.90
7572;DHT22;3827;49.928;8.548;2022-12-29T12:06:24;11.70;99.90
7572;DHT22;3827;49.928;8.548;2022-12-29T12:11:26;12.10;99.90
7572;DHT22;3827;49.928;8.548;2022-12-29T12:14:01;11.80;99.90
7572;DHT22;3827;49.928;8.548;2022-12-29T12:29:22;11.70;99.90
7572;DHT22;3827;49.928;8.548;2022-12-29T12:31:54;11.70;99.90
7572;DHT22;3827;49.928;8.548;2022-12-29T12:53:12;11.70;99.90
7572;DHT22;3827;49.928;8.548;2022-12-29T12:55:59;12.10;99.90
7572;DHT22;3827;49.928;8.548;2022-12-29T13:01:11;11.80;99.90
7572;DHT22;3827;49.928;8.548;2022-12-29T13:03:53;12.00;99.90
7572;DHT22;3827;49.928;8.548;2022-12-29T13:09:21;11.80;99.90
7572;DHT22;3827;49.928;8.548;2022-12-29T13:19:34;12.50;99.90
7572;DHT22;3827;49.928;8.548;2022-12-29T13:22:07;12.10;99.90
7572;DHT22;3827;49.928;8.548;2022-12-29T13:24:47;12.00;99.90
7572;DHT22;3827;49.928;8.548;2022-12-29T13:29:56;12.20;99.90
7572;DHT22;3827;49.928;8.548;2022-12-29T13:40:10;12.10;99.90
7572;DHT22;3827;49.928;8.548;2022-12-29T13:42:39;12.00;99.90
7572;DHT22;3827;49.928;8.548;2022-12-29T13:52:44;12.00;99.90
7572;DHT22;3827;49.928;8.548;2022-12-29T13:55:22;11.80;99.90
7572;DHT22;3827;49.928;8.548;2022-12-29T13:58:00;12.00;99.90
7572;DHT22;3827;49.928;8.548;2022-12-29T14:05:38;11.90;99.90
7572;DHT22;3827;49.928;8.548;2022-12-29T14:08:13;11.90;99.90
7572;DHT22;3827;49.928;8.548;2022-12-29T14:18:15;11.80;99.90
7572;DHT22;3827;49.928;8.548;2022-12-29T14:20:54;11.90;99.90
7572;DHT22;3827;49.928;8.548;2022-12-29T14:35:53;11.70;99.90
7572;DHT22;3827;49.928;8.548;2022-12-29T14:38:26;11.60;99.90
7572;DHT22;3827;49.928;8.548;2022-12-29T14:41:17;11.40;99.90
7572;DHT22;3827;49.928;8.548;2022-12-29T14:43:58;11.00;99.90
7572;DHT22;3827;49.928;8.548;2022-12-29T14:51:41;11.30;99.90
7572;DHT22;3827;49.928;8.548;2022-12-29T15:05:00;11.20;99.90
7572;DHT22;3827;49.928;8.548;2022-12-29T15:10:00;10.90;99.90
7572;DHT22;3827;49.928;8.548;2022-12-29T15:15:10;10.20;99.90
7572;DHT22;3827;49.928;8.548;2022-12-29T15:22:43;10.60;99.90
7572;DHT22;3827;49.928;8.548;2022-12-29T15:27:41;10.40;99.90
7572;DHT22;3827;49.928;8.548;2022-12-29T15:32:43;10.60;99.90
7572;DHT22;3827;49.928;8.548;2022-12-29T15:35:23;10.00;99.90
7572;DHT22;3827;49.928;8.548;2022-12-29T15:37:51;10.20;99.90
7572;DHT22;3827;49.928;8.548;2022-12-29T15:45:27;10.50;99.90
7572;DHT22;3827;49.928;8.548;2022-12-29T15:52:53;10.30;99.90
7572;DHT22;3827;49.928;8.548;2022-12-29T15:55:26;10.00;99.90
7572;DHT22;3827;49.928;8.548;2022-12-29T16:05:21;10.20;99.90
7572;DHT22;3827;49.928;8.548;2022-12-29T16:27:44;9.40;99.90
7572;DHT22;3827;49.928;8.548;2022-12-29T16:37:44;8.80;99.90
7572;DHT22;3827;49.928;8.548;2022-12-29T16:40:26;9.10;99.90
7572;DHT22;3827;49.928;8.548;2022-12-29T16:48:18;9.10;99.90
7572;DHT22;3827;49.928;8.548;2022-12-29T16:50:46;9.00;99.90
7572;DHT22;3827;49.928;8.548;2022-12-29T16:55:47;8.70;99.90
7572;DHT22;3827;49.928;8.548;2022-12-29T16:58:16;8.50;99.90
7572;DHT22;3827;49.928;8.548;2022-12-29T17:03:15;8.80;99.90
7572;DHT22;3827;49.928;8.548;2022-12-29T17:13:33;8.80;99.90
7572;DHT22;3827;49.928;8.548;2022-12-29T17:20:56;9.00;99.90
7572;DHT22;3827;49.928;8.548;2022-12-29T17:35:44;9.00;99.90
7572;DHT22;3827;49.928;8.548;2022-12-29T17:38:17;9.10;99.90
7572;DHT22;3827;49.928;8.548;2022-12-29T17:40:44;8.80;99.90
7572;DHT22;3827;49.928;8.548;2022-12-29T17:45:40;9.10;99.90
7572;DHT22;3827;49.928;8.548;2022-12-29T17:48:11;8.80;99.90
7572;DHT22;3827;49.928;8.548;2022-12-29T17:50:38;9.40;99.90
7572;DHT22;3827;49.928;8.548;2022-12-29T18:03:13;9.50;99.90
7572;DHT22;3827;49.928;8.548;2022-12-29T18:05:41;9.10;99.90
7572;DHT22;3827;49.928;8.548;2022-12-29T18:13:05;9.20;99.90
7572;DHT22;3827;49.928;8.548;2022-12-29T18:15:34;9.60;99.90
7572;DHT22;3827;49.928;8.548;2022-12-29T18:20:29;9.40;99.90
7572;DHT22;3827;49.928;8.548;2022-12-29T18:25:29;8.90;99.90
7572;DHT22;3827;49.928;8.548;2022-12-29T18:27:59;8.80;99.90
7572;DHT22;3827;49.928;8.548;2022-12-29T18:30:25;8.90;99.90
7572;DHT22;3827;49.928;8.548;2022-12-29T18:35:25;8.90;99.90
7572;DHT22;3827;49.928;8.548;2022-12-29T18:37:54;8.90;99.90
7572;DHT22;3827;49.928;8.548;2022-12-29T18:42:50;8.90;99.90
7572;DHT22;3827;49.928;8.548;2022-12-29T18:45:18;8.70;99.90
7572;DHT22;3827;49.928;8.548;2022-12-29T18:47:46;8.80;99.90
7572;DHT22;3827;49.928;8.548;2022-12-29T18:50:13;8.60;99.90
7572;DHT22;3827;49.928;8.548;2022-12-29T18:55:11;8.50;99.90
7572;DHT22;3827;49.928;8.548;2022-12-29T19:02:37;8.80;99.90
7572;DHT22;3827;49.928;8.548;2022-12-29T19:05:05;8.70;99.90
7572;DHT22;3827;49.928;8.548;2022-12-29T19:10:07;8.20;99.90
7572;DHT22;3827;49.928;8.548;2022-12-29T19:15:01;8.60;99.90
7572;DHT22;3827;49.928;8.548;2022-12-29T19:17:32;8.20;99.90
7572;DHT22;3827;49.928;8.548;2022-12-29T19:24:55;8.60;99.90
7572;DHT22;3827;49.928;8.548;2022-12-29T19:27:22;8.40;99.90
7572;DHT22;3827;49.928;8.548;2022-12-29T19:32:15;8.60;99.90
7572;DHT22;3827;49.928;8.548;2022-12-29T19:34:44;8.40;99.90
7572;DHT22;3827;49.928;8.548;2022-12-29T19:39:40;8.30;99.90
7572;DHT22;3827;49.928;8.548;2022-12-29T19:44:34;8.40;99.90
7572;DHT22;3827;49.928;8.548;2022-12-29T19:51:57;8.10;99.90
7572;DHT22;3827;49.928;8.548;2022-12-29T19:54:24;8.10;99.90
7572;DHT22;3827;49.928;8.548;2022-12-29T19:59:18;8.00;99.90
7572;DHT22;3827;49.928;8.548;2022-12-29T20:04:13;8.10;99.90
7572;DHT22;3827;49.928;8.548;2022-12-29T20:09:08;7.90;99.90
7572;DHT22;3827;49.928;8.548;2022-12-29T20:11:35;7.80;99.90
7572;DHT22;3827;49.928;8.548;2022-12-29T20:16:29;7.90;99.90
7572;DHT22;3827;49.928;8.548;2022-12-29T20:18:59;8.00;99.90
7572;DHT22;3827;49.928;8.548;2022-12-29T20:23:55;8.20;99.90
7572;DHT22;3827;49.928;8.548;2022-12-29T20:26:26;8.30;99.90
7572;DHT22;3827;49.928;8.548;2022-12-29T20:28:53;8.90;99.90
7572;DHT22;3827;49.928;8.548;2022-12-29T20:31:24;8.30;99.90
7572;DHT22;3827;49.928;8.548;2022-12-29T20:33:51;8.40;99.90
7572;DHT22;3827;49.928;8.548;2022-12-29T20:36:20;8.50;99.90
7572;DHT22;3827;49.928;8.548;2022-12-29T20:41:16;8.60;99.90
7572;DHT22;3827;49.928;8.548;2022-12-29T20:48:40;8.30;99.90
7572;DHT22;3827;49.928;8.548;2022-12-29T20:58:30;8.50;99.90
7572;DHT22;3827;49.928;8.548;2022-12-29T21:03:28;8.40;99.90
7572;DHT22;3827;49.928;8.548;2022-12-29T21:08:25;8.60;99.90
7572;DHT22;3827;49.928;8.548;2022-12-29T21:10:52;8.60;99.90
7572;DHT22;3827;49.928;8.548;2022-12-29T21:15:46;8.40;99.90
7572;DHT22;3827;49.928;8.548;2022-12-29T21:18:15;8.70;99.90
7572;DHT22;3827;49.928;8.548;2022-12-29T21:28:03;8.70;99.90
7572;DHT22;3827;49.928;8.548;2022-12-29T21:32:57;8.80;99.90
7572;DHT22;3827;49.928;8.548;2022-12-29T21:35:25;8.20;99.90
7572;DHT22;3827;49.928;8.548;2022-12-29T21:42:48;8.10;99.90
7572;DHT22;3827;49.928;8.548;2022-12-29T21:45:15;8.00;99.90
7572;DHT22;3827;49.928;8.548;2022-12-29T21:50:38;8.00;99.90
7572;DHT22;3827;49.928;8.548;2022-12-29T21:58:30;7.60;99.90
7572;DHT22;3827;49.928;8.548;2022-12-29T22:01:14;8.30;99.90
7572;DHT22;3827;49.928;8.548;2022-12-29T22:09:30;8.00;99.90
7572;DHT22;3827;49.928;8.548;2022-12-29T22:12:14;7.90;99.90
7572;DHT22;3827;49.928;8.548;2022-12-29T22:19:52;7.60;99.90
7572;DHT22;3827;49.928;8.548;2022-12-29T22:22:21;7.50;99.90
7572;DHT22;3827;49.928;8.548;2022-12-29T22:24:48;7.50;99.90
7572;DHT22;3827;49.928;8.548;2022-12-29T22:27:15;7.60;99.90
7572;DHT22;3827;49.928;8.548;2022-12-29T22:41:59;7.40;99.90
7572;DHT22;3827;49.928;8.548;2022-12-29T22:44:25;7.30;99.90
7572;DHT22;3827;49.928;8.548;2022-12-29T22:46:52;7.40;99.90
7572;DHT22;3827;49.928;8.548;2022-12-29T22:49:19;7.50;99.90
7572;DHT22;3827;49.928;8.548;2022-12-29T22:54:13;7.70;99.90
7572;DHT22;3827;49.928;8.548;2022-12-29T22:56:42;7.70;99.90
7572;DHT22;3827;49.928;8.548;2022-12-29T22:59:09;7.50;99.90
7572;DHT22;3827;49.928;8.548;2022-12-29T23:04:04;7.50;99.90
7572;DHT22;3827;49.928;8.548;2022-12-29T23:11:26;7.40;99.90
7572;DHT22;3827;49.928;8.548;2022-12-29T23:16:22;7.20;99.90
7572;DHT22;3827;49.928;8.548;2022-12-29T23:23:44;7.50;99.90
7572;DHT22;3827;49.928;8.548;2022-12-29T23:26:23;7.40;99.90
7572;DHT22;3827;49.928;8.548;2022-12-29T23:41:13;7.10;99.90
7572;DHT22;3827;49.928;8.548;2022-12-29T23:53:31;7.20;99.90
